Terminal Aerodrome Forecast
Issued by NWS

Home | Current Version | Previous Version | Text Only | Print | Product List | Glossary On
Versions: 1 2 3 4 5 6 7 8 9 10 11 12 13 14 15 16 17
000
FTUS43 KGRR 301135
TAFJXN
TAF
KJXN 301135Z 3012/3112 17005KT 4SM BR SCT005 BKN015
     FM301600 23006KT P6SM BKN025
     FM302300 23005KT P6SM SKC
     FM310500 VRB03KT 4SM BR SKC
     FM311000 VRB03KT 2SM BR SKC=

USA.gov is the U.S. government's official web portal to all federal, state and local government web resources and services.